sensor_id;sensor_type;location;lat;lon;timestamp;P1;durP1;ratioP1;P2;durP2;ratioP2
61702;SDS011;47622;47.726;3.298;2024-01-27T00:01:35;5.32;;;4.00;;
61702;SDS011;47622;47.726;3.298;2024-01-27T00:04:02;7.60;;;4.30;;
61702;SDS011;47622;47.726;3.298;2024-01-27T00:06:28;8.60;;;5.90;;
61702;SDS011;47622;47.726;3.298;2024-01-27T00:08:53;7.28;;;4.95;;
61702;SDS011;47622;47.726;3.298;2024-01-27T00:11:19;8.48;;;4.68;;
61702;SDS011;47622;47.726;3.298;2024-01-27T00:13:45;9.00;;;6.07;;
61702;SDS011;47622;47.726;3.298;2024-01-27T00:16:11;7.30;;;4.90;;
61702;SDS011;47622;47.726;3.298;2024-01-27T00:18:37;7.32;;;5.13;;
61702;SDS011;47622;47.726;3.298;2024-01-27T00:21:03;7.38;;;4.93;;
61702;SDS011;47622;47.726;3.298;2024-01-27T00:23:29;6.88;;;4.78;;
61702;SDS011;47622;47.726;3.298;2024-01-27T00:25:55;7.32;;;5.00;;
61702;SDS011;47622;47.726;3.298;2024-01-27T00:28:20;6.75;;;4.63;;
61702;SDS011;47622;47.726;3.298;2024-01-27T00:30:46;6.97;;;4.63;;
61702;SDS011;47622;47.726;3.298;2024-01-27T00:33:12;7.68;;;4.25;;
61702;SDS011;47622;47.726;3.298;2024-01-27T00:35:37;8.05;;;4.55;;
61702;SDS011;47622;47.726;3.298;2024-01-27T00:38:03;6.55;;;4.40;;
61702;SDS011;47622;47.726;3.298;2024-01-27T00:40:28;5.38;;;3.97;;
61702;SDS011;47622;47.726;3.298;2024-01-27T00:42:54;7.32;;;4.25;;
61702;SDS011;47622;47.726;3.298;2024-01-27T00:45:20;7.70;;;5.03;;
61702;SDS011;47622;47.726;3.298;2024-01-27T00:47:48;8.95;;;5.97;;
61702;SDS011;47622;47.726;3.298;2024-01-27T00:50:14;8.90;;;5.18;;
61702;SDS011;47622;47.726;3.298;2024-01-27T00:52:40;8.40;;;4.85;;
61702;SDS011;47622;47.726;3.298;2024-01-27T00:55:06;9.13;;;4.93;;
61702;SDS011;47622;47.726;3.298;2024-01-27T00:57:32;6.07;;;4.30;;
61702;SDS011;47622;47.726;3.298;2024-01-27T00:59:57;7.78;;;4.72;;
61702;SDS011;47622;47.726;3.298;2024-01-27T01:02:24;8.20;;;4.72;;
61702;SDS011;47622;47.726;3.298;2024-01-27T01:04:49;7.10;;;4.65;;
61702;SDS011;47622;47.726;3.298;2024-01-27T01:07:15;8.93;;;4.82;;
61702;SDS011;47622;47.726;3.298;2024-01-27T01:09:41;7.88;;;4.35;;
61702;SDS011;47622;47.726;3.298;2024-01-27T01:12:07;7.05;;;4.75;;
61702;SDS011;47622;47.726;3.298;2024-01-27T01:14:34;6.57;;;4.78;;
61702;SDS011;47622;47.726;3.298;2024-01-27T01:17:00;7.70;;;4.28;;
61702;SDS011;47622;47.726;3.298;2024-01-27T01:19:25;7.82;;;4.55;;
61702;SDS011;47622;47.726;3.298;2024-01-27T01:21:51;9.00;;;4.45;;
61702;SDS011;47622;47.726;3.298;2024-01-27T01:24:17;8.32;;;3.92;;
61702;SDS011;47622;47.726;3.298;2024-01-27T01:26:42;8.32;;;4.22;;
61702;SDS011;47622;47.726;3.298;2024-01-27T01:29:08;7.05;;;4.25;;
61702;SDS011;47622;47.726;3.298;2024-01-27T01:31:33;6.95;;;3.80;;
61702;SDS011;47622;47.726;3.298;2024-01-27T01:33:59;7.18;;;4.22;;
61702;SDS011;47622;47.726;3.298;2024-01-27T01:36:24;9.55;;;4.15;;
61702;SDS011;47622;47.726;3.298;2024-01-27T01:38:50;5.57;;;3.85;;
61702;SDS011;47622;47.726;3.298;2024-01-27T01:41:15;8.43;;;4.20;;
61702;SDS011;47622;47.726;3.298;2024-01-27T01:43:41;5.47;;;3.60;;
61702;SDS011;47622;47.726;3.298;2024-01-27T01:46:06;9.40;;;3.95;;
61702;SDS011;47622;47.726;3.298;2024-01-27T01:48:32;7.38;;;3.90;;
61702;SDS011;47622;47.726;3.298;2024-01-27T01:50:59;6.90;;;3.70;;
61702;SDS011;47622;47.726;3.298;2024-01-27T01:53:25;7.15;;;3.95;;
61702;SDS011;47622;47.726;3.298;2024-01-27T01:55:52;12.55;;;3.78;;
61702;SDS011;47622;47.726;3.298;2024-01-27T01:58:20;6.60;;;3.42;;
61702;SDS011;47622;47.726;3.298;2024-01-27T02:00:45;10.48;;;4.40;;
61702;SDS011;47622;47.726;3.298;2024-01-27T02:03:12;13.48;;;4.38;;
61702;SDS011;47622;47.726;3.298;2024-01-27T02:05:38;10.05;;;3.60;;
61702;SDS011;47622;47.726;3.298;2024-01-27T02:08:04;8.20;;;4.22;;
61702;SDS011;47622;47.726;3.298;2024-01-27T02:10:30;7.55;;;5.05;;
61702;SDS011;47622;47.726;3.298;2024-01-27T02:15:43;8.03;;;4.30;;
61702;SDS011;47622;47.726;3.298;2024-01-27T02:18:09;9.30;;;4.18;;
61702;SDS011;47622;47.726;3.298;2024-01-27T02:20:35;6.20;;;3.60;;
61702;SDS011;47622;47.726;3.298;2024-01-27T02:23:00;8.57;;;4.20;;
61702;SDS011;47622;47.726;3.298;2024-01-27T02:25:29;6.78;;;4.07;;
61702;SDS011;47622;47.726;3.298;2024-01-27T02:27:58;8.65;;;3.90;;
61702;SDS011;47622;47.726;3.298;2024-01-27T02:30:24;8.88;;;3.92;;
61702;SDS011;47622;47.726;3.298;2024-01-27T02:32:50;11.00;;;4.38;;
61702;SDS011;47622;47.726;3.298;2024-01-27T02:35:16;7.68;;;5.18;;
61702;SDS011;47622;47.726;3.298;2024-01-27T02:37:42;8.23;;;4.38;;
61702;SDS011;47622;47.726;3.298;2024-01-27T02:40:07;7.88;;;4.93;;
61702;SDS011;47622;47.726;3.298;2024-01-27T02:42:35;11.88;;;5.53;;
61702;SDS011;47622;47.726;3.298;2024-01-27T02:45:00;10.90;;;6.30;;
61702;SDS011;47622;47.726;3.298;2024-01-27T02:47:26;13.25;;;6.00;;
61702;SDS011;47622;47.726;3.298;2024-01-27T02:49:52;14.48;;;6.03;;
61702;SDS011;47622;47.726;3.298;2024-01-27T02:52:17;9.93;;;5.25;;
61702;SDS011;47622;47.726;3.298;2024-01-27T02:54:43;11.82;;;6.85;;
61702;SDS011;47622;47.726;3.298;2024-01-27T02:57:09;13.88;;;6.85;;
61702;SDS011;47622;47.726;3.298;2024-01-27T02:59:34;9.57;;;6.18;;
61702;SDS011;47622;47.726;3.298;2024-01-27T03:02:00;9.88;;;6.38;;
61702;SDS011;47622;47.726;3.298;2024-01-27T03:04:26;11.45;;;5.53;;
61702;SDS011;47622;47.726;3.298;2024-01-27T03:06:51;10.57;;;5.03;;
61702;SDS011;47622;47.726;3.298;2024-01-27T03:09:17;12.90;;;5.38;;
61702;SDS011;47622;47.726;3.298;2024-01-27T03:11:43;8.55;;;4.22;;
61702;SDS011;47622;47.726;3.298;2024-01-27T03:14:08;6.93;;;4.57;;
61702;SDS011;47622;47.726;3.298;2024-01-27T03:16:35;7.65;;;4.07;;
61702;SDS011;47622;47.726;3.298;2024-01-27T03:19:01;6.05;;;4.15;;
61702;SDS011;47622;47.726;3.298;2024-01-27T03:21:27;7.32;;;4.10;;
61702;SDS011;47622;47.726;3.298;2024-01-27T03:23:52;8.68;;;4.85;;
61702;SDS011;47622;47.726;3.298;2024-01-27T03:26:18;9.82;;;4.30;;
61702;SDS011;47622;47.726;3.298;2024-01-27T03:28:43;9.15;;;4.40;;
61702;SDS011;47622;47.726;3.298;2024-01-27T03:31:09;6.35;;;4.60;;
61702;SDS011;47622;47.726;3.298;2024-01-27T03:33:34;8.60;;;4.35;;
61702;SDS011;47622;47.726;3.298;2024-01-27T03:36:00;9.57;;;5.63;;
61702;SDS011;47622;47.726;3.298;2024-01-27T03:38:25;11.98;;;5.95;;
61702;SDS011;47622;47.726;3.298;2024-01-27T03:40:51;12.35;;;5.53;;
61702;SDS011;47622;47.726;3.298;2024-01-27T03:43:17;9.93;;;5.43;;
61702;SDS011;47622;47.726;3.298;2024-01-27T03:45:42;6.85;;;4.95;;
61702;SDS011;47622;47.726;3.298;2024-01-27T03:48:08;8.35;;;4.85;;
61702;SDS011;47622;47.726;3.298;2024-01-27T03:50:33;6.85;;;4.10;;
61702;SDS011;47622;47.726;3.298;2024-01-27T03:52:59;7.00;;;4.15;;
61702;SDS011;47622;47.726;3.298;2024-01-27T03:55:24;7.68;;;4.70;;
61702;SDS011;47622;47.726;3.298;2024-01-27T03:57:50;9.20;;;4.53;;
61702;SDS011;47622;47.726;3.298;2024-01-27T04:00:15;10.05;;;4.32;;
61702;SDS011;47622;47.726;3.298;2024-01-27T04:02:41;9.40;;;4.60;;
61702;SDS011;47622;47.726;3.298;2024-01-27T04:05:07;7.57;;;4.75;;
61702;SDS011;47622;47.726;3.298;2024-01-27T04:07:32;7.50;;;4.75;;
61702;SDS011;47622;47.726;3.298;2024-01-27T04:09:58;7.32;;;4.78;;
61702;SDS011;47622;47.726;3.298;2024-01-27T04:12:23;6.75;;;4.15;;
61702;SDS011;47622;47.726;3.298;2024-01-27T04:14:49;9.52;;;4.85;;
61702;SDS011;47622;47.726;3.298;2024-01-27T04:17:15;11.48;;;4.95;;
61702;SDS011;47622;47.726;3.298;2024-01-27T04:19:40;12.27;;;4.43;;
61702;SDS011;47622;47.726;3.298;2024-01-27T04:22:06;7.68;;;4.43;;
61702;SDS011;47622;47.726;3.298;2024-01-27T04:24:32;8.82;;;4.60;;
61702;SDS011;47622;47.726;3.298;2024-01-27T04:26:58;8.13;;;4.22;;
61702;SDS011;47622;47.726;3.298;2024-01-27T04:29:24;10.25;;;5.32;;
61702;SDS011;47622;47.726;3.298;2024-01-27T04:31:50;7.63;;;4.70;;
61702;SDS011;47622;47.726;3.298;2024-01-27T04:34:16;9.02;;;4.30;;
61702;SDS011;47622;47.726;3.298;2024-01-27T04:36:41;7.90;;;5.00;;
61702;SDS011;47622;47.726;3.298;2024-01-27T04:39:07;8.05;;;5.03;;
61702;SDS011;47622;47.726;3.298;2024-01-27T04:41:33;9.57;;;5.07;;
61702;SDS011;47622;47.726;3.298;2024-01-27T04:43:58;8.98;;;5.28;;
61702;SDS011;47622;47.726;3.298;2024-01-27T04:46:24;9.98;;;5.10;;
61702;SDS011;47622;47.726;3.298;2024-01-27T04:48:50;12.13;;;5.18;;
61702;SDS011;47622;47.726;3.298;2024-01-27T04:51:15;9.45;;;4.72;;
61702;SDS011;47622;47.726;3.298;2024-01-27T04:53:41;8.27;;;4.80;;
61702;SDS011;47622;47.726;3.298;2024-01-27T04:56:06;9.55;;;4.57;;
61702;SDS011;47622;47.726;3.298;2024-01-27T04:58:33;9.35;;;5.15;;
61702;SDS011;47622;47.726;3.298;2024-01-27T05:01:00;9.20;;;4.50;;
61702;SDS011;47622;47.726;3.298;2024-01-27T05:03:26;9.45;;;4.05;;
61702;SDS011;47622;47.726;3.298;2024-01-27T05:05:52;10.73;;;4.15;;
61702;SDS011;47622;47.726;3.298;2024-01-27T05:08:17;5.60;;;3.75;;
61702;SDS011;47622;47.726;3.298;2024-01-27T05:10:44;7.07;;;4.07;;
61702;SDS011;47622;47.726;3.298;2024-01-27T05:13:09;8.32;;;4.57;;
61702;SDS011;47622;47.726;3.298;2024-01-27T05:15:35;9.13;;;3.97;;
61702;SDS011;47622;47.726;3.298;2024-01-27T05:18:01;11.88;;;4.90;;
61702;SDS011;47622;47.726;3.298;2024-01-27T05:20:26;9.07;;;4.93;;
61702;SDS011;47622;47.726;3.298;2024-01-27T05:22:52;9.20;;;4.88;;
61702;SDS011;47622;47.726;3.298;2024-01-27T05:25:17;12.05;;;5.63;;
61702;SDS011;47622;47.726;3.298;2024-01-27T05:27:43;12.63;;;5.55;;
61702;SDS011;47622;47.726;3.298;2024-01-27T05:30:08;9.27;;;4.05;;
61702;SDS011;47622;47.726;3.298;2024-01-27T05:32:34;8.90;;;5.82;;
61702;SDS011;47622;47.726;3.298;2024-01-27T05:35:00;14.02;;;5.57;;
61702;SDS011;47622;47.726;3.298;2024-01-27T05:37:28;8.43;;;4.72;;
61702;SDS011;47622;47.726;3.298;2024-01-27T05:39:54;7.22;;;4.60;;
61702;SDS011;47622;47.726;3.298;2024-01-27T05:42:20;11.05;;;5.18;;
61702;SDS011;47622;47.726;3.298;2024-01-27T05:44:46;8.18;;;4.00;;
61702;SDS011;47622;47.726;3.298;2024-01-27T05:47:12;9.60;;;4.25;;
61702;SDS011;47622;47.726;3.298;2024-01-27T05:49:37;7.97;;;3.60;;
61702;SDS011;47622;47.726;3.298;2024-01-27T05:52:03;9.18;;;4.05;;
61702;SDS011;47622;47.726;3.298;2024-01-27T05:54:29;7.68;;;4.00;;
61702;SDS011;47622;47.726;3.298;2024-01-27T05:56:54;6.90;;;4.35;;
61702;SDS011;47622;47.726;3.298;2024-01-27T05:59:21;6.45;;;4.22;;
61702;SDS011;47622;47.726;3.298;2024-01-27T06:01:46;10.93;;;4.28;;
61702;SDS011;47622;47.726;3.298;2024-01-27T06:04:12;9.05;;;3.70;;
61702;SDS011;47622;47.726;3.298;2024-01-27T06:06:39;7.28;;;4.00;;
61702;SDS011;47622;47.726;3.298;2024-01-27T06:09:05;7.57;;;3.42;;
61702;SDS011;47622;47.726;3.298;2024-01-27T06:11:35;6.80;;;3.45;;
61702;SDS011;47622;47.726;3.298;2024-01-27T06:14:01;9.27;;;4.20;;
61702;SDS011;47622;47.726;3.298;2024-01-27T06:16:26;7.68;;;4.55;;
61702;SDS011;47622;47.726;3.298;2024-01-27T06:18:52;7.38;;;3.80;;
61702;SDS011;47622;47.726;3.298;2024-01-27T06:21:19;6.95;;;3.80;;
61702;SDS011;47622;47.726;3.298;2024-01-27T06:23:45;8.02;;;3.55;;
61702;SDS011;47622;47.726;3.298;2024-01-27T06:26:12;5.90;;;4.13;;
61702;SDS011;47622;47.726;3.298;2024-01-27T06:28:38;9.13;;;4.53;;
61702;SDS011;47622;47.726;3.298;2024-01-27T06:31:04;7.57;;;4.25;;
61702;SDS011;47622;47.726;3.298;2024-01-27T06:33:30;10.73;;;4.35;;
61702;SDS011;47622;47.726;3.298;2024-01-27T06:35:56;11.98;;;4.18;;
61702;SDS011;47622;47.726;3.298;2024-01-27T06:38:22;11.50;;;4.60;;
61702;SDS011;47622;47.726;3.298;2024-01-27T06:40:48;8.55;;;3.72;;
61702;SDS011;47622;47.726;3.298;2024-01-27T06:43:13;7.32;;;4.00;;
61702;SDS011;47622;47.726;3.298;2024-01-27T06:45:39;10.60;;;4.20;;
61702;SDS011;47622;47.726;3.298;2024-01-27T06:48:05;9.82;;;4.38;;
61702;SDS011;47622;47.726;3.298;2024-01-27T06:50:32;6.05;;;4.07;;
61702;SDS011;47622;47.726;3.298;2024-01-27T06:52:58;9.48;;;4.05;;
61702;SDS011;47622;47.726;3.298;2024-01-27T06:55:24;15.32;;;4.95;;
61702;SDS011;47622;47.726;3.298;2024-01-27T06:57:50;8.77;;;5.32;;
61702;SDS011;47622;47.726;3.298;2024-01-27T07:00:16;12.25;;;4.45;;
61702;SDS011;47622;47.726;3.298;2024-01-27T07:02:42;10.55;;;5.20;;
61702;SDS011;47622;47.726;3.298;2024-01-27T07:05:08;11.43;;;5.45;;
61702;SDS011;47622;47.726;3.298;2024-01-27T07:07:34;11.57;;;6.40;;
61702;SDS011;47622;47.726;3.298;2024-01-27T07:10:00;15.73;;;7.43;;
61702;SDS011;47622;47.726;3.298;2024-01-27T07:12:26;14.35;;;7.25;;
61702;SDS011;47622;47.726;3.298;2024-01-27T07:14:52;11.40;;;7.68;;
61702;SDS011;47622;47.726;3.298;2024-01-27T07:17:19;13.80;;;8.18;;
61702;SDS011;47622;47.726;3.298;2024-01-27T07:19:44;16.92;;;7.43;;
61702;SDS011;47622;47.726;3.298;2024-01-27T07:22:10;15.88;;;7.80;;
61702;SDS011;47622;47.726;3.298;2024-01-27T07:24:36;15.20;;;7.22;;
61702;SDS011;47622;47.726;3.298;2024-01-27T07:27:01;12.88;;;6.75;;
61702;SDS011;47622;47.726;3.298;2024-01-27T07:29:27;13.73;;;6.82;;
61702;SDS011;47622;47.726;3.298;2024-01-27T07:31:53;12.05;;;6.30;;
61702;SDS011;47622;47.726;3.298;2024-01-27T07:34:19;11.50;;;6.30;;
61702;SDS011;47622;47.726;3.298;2024-01-27T07:36:44;10.55;;;5.55;;
61702;SDS011;47622;47.726;3.298;2024-01-27T07:39:10;12.43;;;5.63;;
61702;SDS011;47622;47.726;3.298;2024-01-27T07:41:37;12.55;;;6.55;;
61702;SDS011;47622;47.726;3.298;2024-01-27T07:46:35;13.20;;;6.88;;
61702;SDS011;47622;47.726;3.298;2024-01-27T07:49:04;13.60;;;6.97;;
61702;SDS011;47622;47.726;3.298;2024-01-27T07:51:30;12.32;;;6.18;;
61702;SDS011;47622;47.726;3.298;2024-01-27T07:53:56;12.80;;;6.38;;
61702;SDS011;47622;47.726;3.298;2024-01-27T07:56:22;8.95;;;6.18;;
61702;SDS011;47622;47.726;3.298;2024-01-27T07:58:47;18.48;;;5.85;;
61702;SDS011;47622;47.726;3.298;2024-01-27T08:01:16;15.32;;;6.88;;
61702;SDS011;47622;47.726;3.298;2024-01-27T08:03:42;14.48;;;6.40;;
61702;SDS011;47622;47.726;3.298;2024-01-27T08:06:18;8.30;;;5.13;;
61702;SDS011;47622;47.726;3.298;2024-01-27T08:08:45;9.68;;;4.97;;
61702;SDS011;47622;47.726;3.298;2024-01-27T08:11:12;8.45;;;4.85;;
61702;SDS011;47622;47.726;3.298;2024-01-27T08:13:41;7.22;;;3.90;;
61702;SDS011;47622;47.726;3.298;2024-01-27T08:16:07;8.45;;;3.78;;
61702;SDS011;47622;47.726;3.298;2024-01-27T08:18:35;8.60;;;3.90;;
61702;SDS011;47622;47.726;3.298;2024-01-27T08:21:02;5.22;;;3.33;;
61702;SDS011;47622;47.726;3.298;2024-01-27T08:23:28;7.05;;;3.55;;
61702;SDS011;47622;47.726;3.298;2024-01-27T08:25:54;8.20;;;3.40;;
61702;SDS011;47622;47.726;3.298;2024-01-27T08:28:19;7.15;;;3.85;;
61702;SDS011;47622;47.726;3.298;2024-01-27T08:30:45;5.50;;;3.53;;
61702;SDS011;47622;47.726;3.298;2024-01-27T08:33:10;7.78;;;3.80;;
61702;SDS011;47622;47.726;3.298;2024-01-27T08:35:36;10.07;;;3.72;;
61702;SDS011;47622;47.726;3.298;2024-01-27T08:38:02;7.80;;;4.20;;
61702;SDS011;47622;47.726;3.298;2024-01-27T08:40:29;6.70;;;4.05;;
61702;SDS011;47622;47.726;3.298;2024-01-27T08:42:54;10.35;;;4.90;;
61702;SDS011;47622;47.726;3.298;2024-01-27T08:45:20;8.10;;;4.10;;
61702;SDS011;47622;47.726;3.298;2024-01-27T08:47:46;11.02;;;4.15;;
61702;SDS011;47622;47.726;3.298;2024-01-27T08:50:11;10.63;;;4.55;;
61702;SDS011;47622;47.726;3.298;2024-01-27T08:52:37;7.75;;;5.28;;
61702;SDS011;47622;47.726;3.298;2024-01-27T08:55:03;8.80;;;5.38;;
61702;SDS011;47622;47.726;3.298;2024-01-27T08:57:29;7.18;;;5.35;;
61702;SDS011;47622;47.726;3.298;2024-01-27T08:59:54;9.07;;;5.05;;
61702;SDS011;47622;47.726;3.298;2024-01-27T09:02:20;8.40;;;4.38;;
61702;SDS011;47622;47.726;3.298;2024-01-27T09:04:45;8.68;;;4.60;;
61702;SDS011;47622;47.726;3.298;2024-01-27T09:07:11;7.95;;;4.50;;
61702;SDS011;47622;47.726;3.298;2024-01-27T09:09:37;7.20;;;4.53;;
61702;SDS011;47622;47.726;3.298;2024-01-27T09:12:05;8.18;;;4.25;;
61702;SDS011;47622;47.726;3.298;2024-01-27T09:14:31;5.70;;;3.85;;
61702;SDS011;47622;47.726;3.298;2024-01-27T09:16:59;5.90;;;4.05;;
61702;SDS011;47622;47.726;3.298;2024-01-27T09:19:27;7.07;;;4.65;;
61702;SDS011;47622;47.726;3.298;2024-01-27T09:21:53;8.60;;;4.38;;
61702;SDS011;47622;47.726;3.298;2024-01-27T09:24:19;9.43;;;4.05;;
61702;SDS011;47622;47.726;3.298;2024-01-27T09:26:45;9.57;;;4.28;;
61702;SDS011;47622;47.726;3.298;2024-01-27T09:29:10;6.28;;;4.28;;
61702;SDS011;47622;47.726;3.298;2024-01-27T09:31:36;9.52;;;5.55;;
61702;SDS011;47622;47.726;3.298;2024-01-27T09:34:02;7.25;;;5.10;;
61702;SDS011;47622;47.726;3.298;2024-01-27T09:36:28;6.65;;;4.95;;
61702;SDS011;47622;47.726;3.298;2024-01-27T09:38:53;5.50;;;4.20;;
61702;SDS011;47622;47.726;3.298;2024-01-27T09:41:19;6.30;;;4.22;;
61702;SDS011;47622;47.726;3.298;2024-01-27T09:43:46;7.82;;;4.50;;
61702;SDS011;47622;47.726;3.298;2024-01-27T09:46:15;10.45;;;5.13;;
61702;SDS011;47622;47.726;3.298;2024-01-27T09:48:42;8.82;;;5.38;;
61702;SDS011;47622;47.726;3.298;2024-01-27T09:51:08;11.50;;;5.00;;
61702;SDS011;47622;47.726;3.298;2024-01-27T09:53:35;11.80;;;5.80;;
61702;SDS011;47622;47.726;3.298;2024-01-27T09:56:01;8.35;;;5.50;;
61702;SDS011;47622;47.726;3.298;2024-01-27T10:03:28;8.55;;;4.55;;
61702;SDS011;47622;47.726;3.298;2024-01-27T10:05:55;6.25;;;4.00;;
61702;SDS011;47622;47.726;3.298;2024-01-27T10:08:21;7.32;;;4.30;;
61702;SDS011;47622;47.726;3.298;2024-01-27T10:10:48;7.35;;;3.60;;
61702;SDS011;47622;47.726;3.298;2024-01-27T10:13:24;13.25;;;2.85;;
61702;SDS011;47622;47.726;3.298;2024-01-27T10:18:31;6.47;;;2.10;;
61702;SDS011;47622;47.726;3.298;2024-01-27T10:20:58;6.25;;;2.28;;
61702;SDS011;47622;47.726;3.298;2024-01-27T10:28:15;4.43;;;2.20;;
61702;SDS011;47622;47.726;3.298;2024-01-27T10:30:41;6.43;;;2.60;;
61702;SDS011;47622;47.726;3.298;2024-01-27T10:33:10;7.28;;;2.65;;
61702;SDS011;47622;47.726;3.298;2024-01-27T10:35:39;7.95;;;3.08;;
61702;SDS011;47622;47.726;3.298;2024-01-27T10:38:05;7.20;;;3.10;;
61702;SDS011;47622;47.726;3.298;2024-01-27T10:40:30;5.40;;;2.80;;
61702;SDS011;47622;47.726;3.298;2024-01-27T10:43:06;6.50;;;2.65;;
61702;SDS011;47622;47.726;3.298;2024-01-27T10:48:08;8.55;;;2.60;;
61702;SDS011;47622;47.726;3.298;2024-01-27T10:50:40;6.88;;;2.85;;
61702;SDS011;47622;47.726;3.298;2024-01-27T10:53:09;6.90;;;2.55;;
61702;SDS011;47622;47.726;3.298;2024-01-27T10:55:41;8.55;;;3.28;;
61702;SDS011;47622;47.726;3.298;2024-01-27T10:58:09;4.88;;;2.40;;
61702;SDS011;47622;47.726;3.298;2024-01-27T11:00:37;4.40;;;2.40;;
61702;SDS011;47622;47.726;3.298;2024-01-27T11:03:04;4.60;;;2.08;;
61702;SDS011;47622;47.726;3.298;2024-01-27T11:05:32;4.55;;;1.80;;
61702;SDS011;47622;47.726;3.298;2024-01-27T11:08:02;6.13;;;2.13;;
61702;SDS011;47622;47.726;3.298;2024-01-27T11:10:28;8.00;;;2.08;;
61702;SDS011;47622;47.726;3.298;2024-01-27T11:13:00;6.55;;;2.00;;
61702;SDS011;47622;47.726;3.298;2024-01-27T11:15:29;5.07;;;1.60;;
61702;SDS011;47622;47.726;3.298;2024-01-27T11:17:57;4.07;;;1.70;;
61702;SDS011;47622;47.726;3.298;2024-01-27T11:20:24;4.40;;;1.77;;
61702;SDS011;47622;47.726;3.298;2024-01-27T11:22:50;5.35;;;1.90;;
61702;SDS011;47622;47.726;3.298;2024-01-27T11:25:17;5.55;;;1.60;;
61702;SDS011;47622;47.726;3.298;2024-01-27T11:27:44;4.45;;;1.88;;
61702;SDS011;47622;47.726;3.298;2024-01-27T11:32:54;4.50;;;1.50;;
61702;SDS011;47622;47.726;3.298;2024-01-27T11:35:23;5.63;;;2.10;;
61702;SDS011;47622;47.726;3.298;2024-01-27T11:37:49;6.38;;;1.75;;
61702;SDS011;47622;47.726;3.298;2024-01-27T11:40:15;7.30;;;1.80;;
61702;SDS011;47622;47.726;3.298;2024-01-27T11:42:41;5.78;;;1.73;;
61702;SDS011;47622;47.726;3.298;2024-01-27T11:45:07;4.53;;;1.63;;
61702;SDS011;47622;47.726;3.298;2024-01-27T11:47:34;3.83;;;1.92;;
61702;SDS011;47622;47.726;3.298;2024-01-27T11:49:59;3.25;;;1.42;;
61702;SDS011;47622;47.726;3.298;2024-01-27T11:52:27;3.03;;;1.38;;
61702;SDS011;47622;47.726;3.298;2024-01-27T11:54:54;4.90;;;1.70;;
61702;SDS011;47622;47.726;3.298;2024-01-27T11:57:23;2.85;;;1.50;;
61702;SDS011;47622;47.726;3.298;2024-01-27T11:59:49;4.72;;;1.35;;
61702;SDS011;47622;47.726;3.298;2024-01-27T12:02:16;4.00;;;1.17;;
61702;SDS011;47622;47.726;3.298;2024-01-27T12:04:45;3.50;;;1.50;;
61702;SDS011;47622;47.726;3.298;2024-01-27T12:07:12;5.78;;;1.80;;
61702;SDS011;47622;47.726;3.298;2024-01-27T12:09:37;4.65;;;1.50;;
61702;SDS011;47622;47.726;3.298;2024-01-27T12:12:04;5.35;;;1.60;;
61702;SDS011;47622;47.726;3.298;2024-01-27T12:17:08;5.35;;;1.70;;
61702;SDS011;47622;47.726;3.298;2024-01-27T12:19:35;3.72;;;1.67;;
61702;SDS011;47622;47.726;3.298;2024-01-27T12:22:00;2.42;;;1.88;;
61702;SDS011;47622;47.726;3.298;2024-01-27T12:24:26;4.80;;;1.65;;
61702;SDS011;47622;47.726;3.298;2024-01-27T12:26:52;6.93;;;1.83;;
61702;SDS011;47622;47.726;3.298;2024-01-27T12:29:19;7.82;;;2.00;;
61702;SDS011;47622;47.726;3.298;2024-01-27T12:31:45;6.15;;;1.83;;
61702;SDS011;47622;47.726;3.298;2024-01-27T12:34:12;3.30;;;1.50;;
61702;SDS011;47622;47.726;3.298;2024-01-27T12:36:41;5.45;;;2.00;;
61702;SDS011;47622;47.726;3.298;2024-01-27T12:39:07;3.97;;;1.85;;
61702;SDS011;47622;47.726;3.298;2024-01-27T12:41:34;5.38;;;1.55;;
61702;SDS011;47622;47.726;3.298;2024-01-27T12:44:00;5.10;;;2.25;;
61702;SDS011;47622;47.726;3.298;2024-01-27T12:46:27;4.68;;;1.70;;
61702;SDS011;47622;47.726;3.298;2024-01-27T12:48:53;4.35;;;1.60;;
61702;SDS011;47622;47.726;3.298;2024-01-27T12:51:18;6.10;;;1.85;;
61702;SDS011;47622;47.726;3.298;2024-01-27T12:53:44;4.18;;;2.05;;
61702;SDS011;47622;47.726;3.298;2024-01-27T12:56:14;2.67;;;1.70;;
61702;SDS011;47622;47.726;3.298;2024-01-27T12:58:40;6.82;;;2.17;;
61702;SDS011;47622;47.726;3.298;2024-01-27T13:01:07;3.95;;;1.85;;
61702;SDS011;47622;47.726;3.298;2024-01-27T13:03:34;5.47;;;2.10;;
61702;SDS011;47622;47.726;3.298;2024-01-27T13:06:00;4.43;;;1.80;;
61702;SDS011;47622;47.726;3.298;2024-01-27T13:08:26;3.50;;;2.13;;
61702;SDS011;47622;47.726;3.298;2024-01-27T13:10:52;4.25;;;2.20;;
61702;SDS011;47622;47.726;3.298;2024-01-27T13:13:18;5.45;;;2.10;;
61702;SDS011;47622;47.726;3.298;2024-01-27T13:15:44;4.88;;;2.15;;
61702;SDS011;47622;47.726;3.298;2024-01-27T13:18:10;7.32;;;2.40;;
61702;SDS011;47622;47.726;3.298;2024-01-27T13:20:36;5.05;;;2.08;;
61702;SDS011;47622;47.726;3.298;2024-01-27T13:23:02;6.70;;;2.00;;
61702;SDS011;47622;47.726;3.298;2024-01-27T13:25:27;8.15;;;2.10;;
61702;SDS011;47622;47.726;3.298;2024-01-27T13:27:53;5.22;;;2.20;;
61702;SDS011;47622;47.726;3.298;2024-01-27T13:30:19;3.65;;;2.28;;
61702;SDS011;47622;47.726;3.298;2024-01-27T13:32:45;3.72;;;1.92;;
61702;SDS011;47622;47.726;3.298;2024-01-27T13:35:10;5.13;;;2.08;;
61702;SDS011;47622;47.726;3.298;2024-01-27T13:37:36;6.00;;;2.15;;
61702;SDS011;47622;47.726;3.298;2024-01-27T13:40:03;3.97;;;2.00;;
61702;SDS011;47622;47.726;3.298;2024-01-27T13:42:29;5.30;;;2.20;;
61702;SDS011;47622;47.726;3.298;2024-01-27T13:44:55;5.80;;;2.50;;
61702;SDS011;47622;47.726;3.298;2024-01-27T13:47:22;5.70;;;2.10;;
61702;SDS011;47622;47.726;3.298;2024-01-27T13:49:48;5.95;;;2.60;;
61702;SDS011;47622;47.726;3.298;2024-01-27T13:52:13;6.80;;;2.65;;
61702;SDS011;47622;47.726;3.298;2024-01-27T13:54:39;6.35;;;3.17;;
61702;SDS011;47622;47.726;3.298;2024-01-27T13:57:05;8.35;;;3.72;;
61702;SDS011;47622;47.726;3.298;2024-01-27T13:59:31;6.40;;;3.38;;
61702;SDS011;47622;47.726;3.298;2024-01-27T14:01:57;6.32;;;2.20;;
61702;SDS011;47622;47.726;3.298;2024-01-27T14:04:23;6.15;;;2.60;;
61702;SDS011;47622;47.726;3.298;2024-01-27T14:06:50;4.35;;;2.75;;
61702;SDS011;47622;47.726;3.298;2024-01-27T14:09:18;4.57;;;2.60;;
61702;SDS011;47622;47.726;3.298;2024-01-27T14:11:44;3.85;;;2.70;;
61702;SDS011;47622;47.726;3.298;2024-01-27T14:14:10;4.70;;;2.80;;
61702;SDS011;47622;47.726;3.298;2024-01-27T14:16:35;4.75;;;2.70;;
61702;SDS011;47622;47.726;3.298;2024-01-27T14:19:01;5.40;;;2.50;;
61702;SDS011;47622;47.726;3.298;2024-01-27T14:21:27;5.60;;;3.00;;
61702;SDS011;47622;47.726;3.298;2024-01-27T14:23:53;7.00;;;2.50;;
61702;SDS011;47622;47.726;3.298;2024-01-27T14:26:29;3.33;;;2.58;;
61702;SDS011;47622;47.726;3.298;2024-01-27T14:28:54;5.32;;;2.58;;
61702;SDS011;47622;47.726;3.298;2024-01-27T14:31:20;6.97;;;2.75;;
61702;SDS011;47622;47.726;3.298;2024-01-27T14:33:46;5.93;;;3.00;;
61702;SDS011;47622;47.726;3.298;2024-01-27T14:36:13;4.93;;;2.60;;
61702;SDS011;47622;47.726;3.298;2024-01-27T14:38:39;5.28;;;2.47;;
61702;SDS011;47622;47.726;3.298;2024-01-27T14:41:06;6.60;;;2.53;;
61702;SDS011;47622;47.726;3.298;2024-01-27T14:43:32;6.63;;;3.08;;
61702;SDS011;47622;47.726;3.298;2024-01-27T14:45:58;4.20;;;2.85;;
61702;SDS011;47622;47.726;3.298;2024-01-27T14:48:23;6.82;;;2.75;;
61702;SDS011;47622;47.726;3.298;2024-01-27T14:50:49;3.47;;;2.88;;
61702;SDS011;47622;47.726;3.298;2024-01-27T14:53:22;4.32;;;2.58;;
61702;SDS011;47622;47.726;3.298;2024-01-27T14:55:49;4.80;;;2.90;;
61702;SDS011;47622;47.726;3.298;2024-01-27T14:58:15;7.38;;;3.72;;
61702;SDS011;47622;47.726;3.298;2024-01-27T15:00:41;6.18;;;3.67;;
61702;SDS011;47622;47.726;3.298;2024-01-27T15:03:06;5.68;;;2.85;;
61702;SDS011;47622;47.726;3.298;2024-01-27T15:05:32;5.95;;;2.92;;